Carlsbad, California
Current Conditions -  °F | °C
As of 1:52 PM on Monday 20 Oct 2014 (Local Time) from KOKB Reporting Station
Overcast Overcast  
Wind Chill: 73°   Ceiling: 2000
Heat Index: 73°   Visibility: 10mi
Dew Point: 61°   Wind: 9mph
Humidity: 66%   Direction: 230°SW
Pressure: 29.89"   Gusts: NA
Location:  33.17°N, 117.33°W
Report Text: KOKB 202052Z AUTO 23008KT 10SM OVC020 23/16 A2989 RMK AO2 SLP120 T02280161 58019
Loading
Personal Weather Stations






























Interactive Weather Map
Tropical Storm Tracking
New forecast layout! Learn more

10-Day Weather Forecast

Advertisements
Track Severe Weather on mobile